Terminal Aerodrome Forecast
Issued by NWS Brownsville, TX

Home | Current Version | Previous Version | Text Only | Print | Product List | Glossary On
Versions: 1 2 3 4 5 6 7 8 9 10 11 12 13 14 15 16 17 18 19 20 21 22 23 24 25 26 27
000
FTUS44 KBRO 201100
TAFMFE
TAF
KMFE 201132Z 2012/2112 36009KT P6SM OVC015
     FM201500 01008KT P6SM OVC010
     FM201700 01007KT P6SM OVC007
     FM201800 01007KT P6SM OVC030
     FM202200 03006KT P6SM OVC050=

USA.gov is the U.S. government's official web portal to all federal, state and local government web resources and services.